Time;durP1;ratioP1;P1;durP2;ratioP2;P2;SDS_P1;SDS_P2;PMS_P1;PMS_P2;Temp;Humidity;BMP_temperature;BMP_pressure;BME280_temperature;BME280_humidity;BME280_pressure;Samples;Min_cycle;Max_cycle;Signal;HPM_P1;HPM_P2
2022/11/29 00:00:35;;;;;;;38.20;26.03;;;;;;;;;;5076472;28;20177;-75
2022/11/29 00:03:01;;;;;;;38.87;26.27;;;;;;;;;;5083674;28;20748;-75
2022/11/29 00:05:27;;;;;;;41.03;27.20;;;;;;;;;;5087294;28;20217;-74
2022/11/29 00:07:53;;;;;;;44.50;27.07;;;;;;;;;;5087991;28;20180;-75
2022/11/29 00:10:19;;;;;;;42.40;27.10;;;;;;;;;;5086953;28;20177;-75
2022/11/29 00:12:47;;;;;;;39.70;25.93;;;;;;;;;;5085333;28;20716;-75
2022/11/29 00:15:13;;;;;;;42.47;27.20;;;;;;;;;;5089175;28;20251;-75
2022/11/29 00:17:39;;;;;;;39.17;25.33;;;;;;;;;;5089200;28;20666;-75
2022/11/29 00:20:05;;;;;;;38.03;26.07;;;;;;;;;;5087255;28;20264;-75
2022/11/29 00:22:31;;;;;;;38.73;25.50;;;;;;;;;;5075045;28;20278;-75
2022/11/29 00:24:57;;;;;;;38.33;26.17;;;;;;;;;;5083169;28;20556;-74
2022/11/29 00:27:23;;;;;;;42.27;27.20;;;;;;;;;;5088265;28;20176;-76
2022/11/29 00:29:49;;;;;;;36.70;25.87;;;;;;;;;;5086736;28;20200;-75
2022/11/29 00:32:15;;;;;;;37.00;24.70;;;;;;;;;;5080755;28;20173;-75
2022/11/29 00:34:41;;;;;;;39.47;26.50;;;;;;;;;;5073926;28;20184;-75
2022/11/29 00:37:07;;;;;;;39.33;25.80;;;;;;;;;;5078994;28;20622;-74
2022/11/29 00:39:35;;;;;;;43.00;27.20;;;;;;;;;;5079237;28;20212;-75
2022/11/29 00:42:01;;;;;;;39.70;25.97;;;;;;;;;;5079562;28;20701;-75
2022/11/29 00:44:27;;;;;;;36.10;25.00;;;;;;;;;;5078890;28;20217;-75
2022/11/29 00:46:53;;;;;;;43.37;27.20;;;;;;;;;;5091419;28;20237;-75
2022/11/29 00:49:19;;;;;;;36.30;25.10;;;;;;;;;;5093173;28;20177;-75
2022/11/29 00:51:45;;;;;;;39.10;26.80;;;;;;;;;;5086261;28;20207;-75
2022/11/29 00:54:12;;;;;;;39.63;26.37;;;;;;;;;;5083642;28;20181;-75
2022/11/29 00:56:38;;;;;;;42.73;27.13;;;;;;;;;;5080986;28;20598;-74
2022/11/29 00:59:04;;;;;;;38.73;26.33;;;;;;;;;;5075965;28;20648;-75
2022/11/29 01:01:30;;;;;;;39.23;25.57;;;;;;;;;;5091676;28;20183;-75
2022/11/29 01:03:56;;;;;;;40.07;26.30;;;;;;;;;;5093015;28;20204;-75
2022/11/29 01:06:22;;;;;;;39.43;24.40;;;;;;;;;;5084158;28;20598;-75
2022/11/29 01:08:49;;;;;;;36.93;24.93;;;;;;;;;;5092245;28;20181;-77
2022/11/29 01:11:20;;;;;;;39.33;25.77;;;;;;;;;;5088993;28;20180;-77
2022/11/29 01:13:46;;;;;;;43.77;25.83;;;;;;;;;;5091121;28;20185;-77
2022/11/29 01:16:13;;;;;;;41.10;25.70;;;;;;;;;;5090002;28;20184;-77
2022/11/29 01:18:39;;;;;;;39.10;25.10;;;;;;;;;;5087885;28;20251;-77
2022/11/29 01:21:07;;;;;;;38.03;23.90;;;;;;;;;;5085979;28;20550;-75
2022/11/29 01:23:33;;;;;;;36.20;23.80;;;;;;;;;;5076350;28;20233;-74
2022/11/29 01:26:00;;;;;;;38.10;25.27;;;;;;;;;;5090462;28;20190;-75
2022/11/29 01:28:27;;;;;;;38.67;24.30;;;;;;;;;;5091124;28;20282;-74
2022/11/29 01:30:53;;;;;;;39.20;25.33;;;;;;;;;;5079065;28;20181;-74
2022/11/29 01:33:19;;;;;;;38.33;25.50;;;;;;;;;;5087117;28;20207;-74
2022/11/29 01:35:49;;;;;;;39.07;25.57;;;;;;;;;;5091357;28;20185;-75
2022/11/29 01:38:15;;;;;;;43.27;26.90;;;;;;;;;;5088615;28;20207;-77
2022/11/29 01:40:41;;;;;;;39.03;26.53;;;;;;;;;;5090069;28;20702;-74
2022/11/29 01:43:18;;;;;;;42.07;26.00;;;;;;;;;;5073675;28;20733;-74
2022/11/29 01:45:44;;;;;;;38.67;25.47;;;;;;;;;;5086140;28;20188;-74
2022/11/29 01:48:11;;;;;;;37.57;25.43;;;;;;;;;;5083410;28;20189;-75
2022/11/29 01:50:38;;;;;;;37.80;25.60;;;;;;;;;;5077753;28;20191;-75
2022/11/29 01:53:05;;;;;;;38.07;25.50;;;;;;;;;;5089264;28;20645;-74
2022/11/29 01:55:31;;;;;;;43.30;25.60;;;;;;;;;;5074531;28;20177;-75
2022/11/29 01:57:59;;;;;;;40.67;26.83;;;;;;;;;;5090429;28;20172;-74
2022/11/29 02:00:25;;;;;;;38.30;25.83;;;;;;;;;;5090556;28;20274;-77
2022/11/29 02:03:01;;;;;;;36.33;24.63;;;;;;;;;;5087464;28;20185;-74
2022/11/29 02:05:27;;;;;;;37.17;25.67;;;;;;;;;;5087825;28;20191;-74
2022/11/29 02:07:55;;;;;;;41.67;24.97;;;;;;;;;;5089671;28;20184;-75
2022/11/29 02:10:24;;;;;;;41.03;24.87;;;;;;;;;;5076125;28;20264;-75
2022/11/29 02:12:54;;;;;;;41.07;25.53;;;;;;;;;;5089909;28;20188;-74
2022/11/29 02:15:21;;;;;;;39.57;24.80;;;;;;;;;;5088009;28;20204;-74
2022/11/29 02:18:01;;;;;;;44.63;27.23;;;;;;;;;;5078003;28;20196;-74
2022/11/29 02:20:45;;;;;;;43.37;25.33;;;;;;;;;;5086464;28;20530;-75
2022/11/29 02:23:23;;;;;;;41.13;25.63;;;;;;;;;;5073806;28;20650;-75
2022/11/29 02:26:02;;;;;;;40.77;26.13;;;;;;;;;;5072707;28;20188;-75
2022/11/29 02:29:07;;;;;;;38.43;24.20;;;;;;;;;;5087532;28;20266;-75
2022/11/29 02:31:39;;;;;;;38.63;25.03;;;;;;;;;;5013668;28;20185;-75
2022/11/29 02:34:23;;;;;;;36.47;24.70;;;;;;;;;;5017480;28;20653;-75
2022/11/29 02:36:58;;;;;;;41.03;25.90;;;;;;;;;;5018563;28;20240;-75
2022/11/29 02:39:42;;;;;;;44.93;27.30;;;;;;;;;;5016191;28;20221;-75
2022/11/29 02:42:27;;;;;;;40.37;26.07;;;;;;;;;;5015352;28;20191;-75
2022/11/29 02:44:58;;;;;;;41.10;26.13;;;;;;;;;;5014637;28;20310;-75
2022/11/29 02:47:42;;;;;;;47.57;26.40;;;;;;;;;;5011008;28;20190;-75
2022/11/29 02:50:08;;;;;;;43.77;26.80;;;;;;;;;;5028093;28;20186;-75
2022/11/29 02:52:39;;;;;;;38.87;26.13;;;;;;;;;;5021932;28;20182;-75
2022/11/29 02:55:23;;;;;;;46.07;27.53;;;;;;;;;;5017106;28;20513;-75
2022/11/29 02:57:55;;;;;;;47.03;27.63;;;;;;;;;;5021417;28;20195;-75
2022/11/29 03:00:22;;;;;;;44.23;26.07;;;;;;;;;;5020878;28;20197;-74
2022/11/29 03:02:51;;;;;;;45.37;26.03;;;;;;;;;;5068464;28;20292;-75
2022/11/29 03:05:36;;;;;;;43.67;26.17;;;;;;;;;;5074232;28;20184;-75
2022/11/29 03:08:17;;;;;;;42.70;26.57;;;;;;;;;;5072592;28;20200;-75
2022/11/29 03:10:55;;;;;;;41.63;25.40;;;;;;;;;;5088615;28;20164;-75
2022/11/29 03:13:45;;;;;;;47.73;28.00;;;;;;;;;;5071994;28;20169;-75
2022/11/29 03:16:28;;;;;;;38.10;24.50;;;;;;;;;;5088031;28;20176;-75
2022/11/29 03:19:10;;;;;;;41.77;25.47;;;;;;;;;;5082889;28;20177;-75
2022/11/29 03:21:41;;;;;;;44.83;26.00;;;;;;;;;;5085188;28;20247;-75
2022/11/29 03:24:27;;;;;;;39.77;25.37;;;;;;;;;;5083103;28;20259;-75
2022/11/29 03:27:01;;;;;;;39.27;25.20;;;;;;;;;;5019225;28;20190;-75
2022/11/29 03:29:27;;;;;;;43.00;25.87;;;;;;;;;;5011927;28;20194;-75
2022/11/29 03:31:55;;;;;;;43.57;25.70;;;;;;;;;;5028412;28;20835;-75
2022/11/29 03:34:31;;;;;;;40.80;26.20;;;;;;;;;;5029272;28;20194;-75
2022/11/29 03:37:02;;;;;;;41.23;25.53;;;;;;;;;;5028592;28;20277;-75
2022/11/29 03:42:38;;;;;;;39.60;23.57;;;;;;;;;;5023979;28;20195;-75
2022/11/29 03:45:18;;;;;;;43.73;26.23;;;;;;;;;;5027630;28;20287;-75
2022/11/29 03:47:49;;;;;;;43.47;26.53;;;;;;;;;;5027592;28;20226;-75
2022/11/29 03:50:28;;;;;;;37.47;24.60;;;;;;;;;;5028486;28;20190;-75
2022/11/29 03:52:59;;;;;;;44.23;25.80;;;;;;;;;;5024749;28;20179;-75
2022/11/29 03:55:25;;;;;;;39.43;25.27;;;;;;;;;;5029999;28;20722;-75
2022/11/29 03:57:53;;;;;;;39.10;25.43;;;;;;;;;;5015717;28;20296;-75
2022/11/29 04:00:20;;;;;;;41.00;25.37;;;;;;;;;;5018530;28;20191;-75
2022/11/29 04:02:46;;;;;;;40.97;24.67;;;;;;;;;;5032136;28;20186;-76
2022/11/29 04:05:28;;;;;;;41.67;26.03;;;;;;;;;;5075714;28;20261;-75
2022/11/29 04:07:54;;;;;;;38.73;23.93;;;;;;;;;;5076402;28;20181;-75
2022/11/29 04:10:44;;;;;;;46.27;26.27;;;;;;;;;;5080447;28;20173;-75
2022/11/29 04:13:10;;;;;;;46.07;26.53;;;;;;;;;;5095783;28;20187;-75
2022/11/29 04:15:45;;;;;;;44.80;26.93;;;;;;;;;;5084804;28;20696;-76
2022/11/29 04:18:31;;;;;;;45.47;26.03;;;;;;;;;;5091070;28;20180;-75
2022/11/29 04:21:36;;;;;;;47.83;27.67;;;;;;;;;;5089307;28;20208;-75
2022/11/29 04:24:20;;;;;;;47.57;27.03;;;;;;;;;;5030970;28;20230;-75
2022/11/29 04:27:05;;;;;;;44.90;26.13;;;;;;;;;;5031511;28;20194;-75
2022/11/29 04:29:49;;;;;;;44.37;26.13;;;;;;;;;;5031500;28;20190;-75
2022/11/29 04:32:34;;;;;;;45.57;27.37;;;;;;;;;;5017882;28;20538;-75
2022/11/29 04:35:26;;;;;;;43.30;27.27;;;;;;;;;;5031801;28;20202;-75
2022/11/29 04:38:06;;;;;;;50.93;27.20;;;;;;;;;;5012838;28;20663;-75
2022/11/29 04:40:39;;;;;;;48.13;28.43;;;;;;;;;;5032111;28;20182;-75
2022/11/29 04:43:05;;;;;;;50.83;30.27;;;;;;;;;;5031896;28;21101;-75
2022/11/29 04:45:34;;;;;;;49.37;30.67;;;;;;;;;;5030756;28;20183;-76
2022/11/29 04:48:00;;;;;;;48.27;29.63;;;;;;;;;;5031217;28;20235;-76
2022/11/29 04:50:41;;;;;;;51.43;30.10;;;;;;;;;;5031620;28;20624;-75
2022/11/29 04:53:26;;;;;;;50.87;30.10;;;;;;;;;;5027786;28;20203;-76
2022/11/29 04:56:12;;;;;;;51.77;31.70;;;;;;;;;;5103865;28;20176;-76
2022/11/29 04:58:56;;;;;;;53.37;32.30;;;;;;;;;;5016527;28;20187;-76
2022/11/29 05:01:39;;;;;;;60.67;34.00;;;;;;;;;;5012623;28;20186;-76
2022/11/29 05:04:24;;;;;;;53.33;31.53;;;;;;;;;;5008135;28;20221;-76
2022/11/29 05:06:55;;;;;;;53.90;32.80;;;;;;;;;;5006918;28;20249;-75
2022/11/29 05:09:50;;;;;;;63.07;33.63;;;;;;;;;;5014024;28;20644;-76
2022/11/29 05:12:34;;;;;;;56.37;32.90;;;;;;;;;;5011395;28;20281;-76
2022/11/29 05:15:19;;;;;;;63.07;34.27;;;;;;;;;;4994335;28;20213;-76
2022/11/29 05:18:03;;;;;;;60.23;34.27;;;;;;;;;;4996727;28;20191;-76
2022/11/29 05:20:32;;;;;;;58.90;33.23;;;;;;;;;;5010770;28;20547;-76
2022/11/29 05:23:04;;;;;;;61.10;33.53;;;;;;;;;;4994561;28;20211;-76
2022/11/29 05:25:30;;;;;;;59.77;34.27;;;;;;;;;;5011865;28;20199;-76
2022/11/29 05:28:04;;;;;;;63.27;35.53;;;;;;;;;;4994285;28;20219;-76
2022/11/29 05:30:41;;;;;;;66.97;36.10;;;;;;;;;;5010595;28;20198;-76
2022/11/29 05:33:10;;;;;;;69.30;35.87;;;;;;;;;;5010551;28;20326;-75
2022/11/29 05:36:00;;;;;;;71.00;37.63;;;;;;;;;;5011457;28;20210;-76
2022/11/29 05:38:32;;;;;;;67.93;34.40;;;;;;;;;;5036638;28;20235;-75
2022/11/29 05:41:16;;;;;;;68.97;36.87;;;;;;;;;;5050494;28;20201;-75
2022/11/29 05:44:03;;;;;;;65.80;34.30;;;;;;;;;;5051232;28;20288;-75
2022/11/29 05:46:36;;;;;;;63.20;33.20;;;;;;;;;;5044735;28;20192;-75
2022/11/29 05:49:20;;;;;;;63.07;32.43;;;;;;;;;;5063848;28;20197;-74
2022/11/29 05:51:53;;;;;;;60.33;34.00;;;;;;;;;;5082252;28;20192;-75
2022/11/29 05:54:34;;;;;;;64.93;34.93;;;;;;;;;;5082745;28;20184;-75
2022/11/29 05:57:24;;;;;;;68.03;34.47;;;;;;;;;;5089147;28;20711;-76
2022/11/29 05:59:50;;;;;;;67.77;34.87;;;;;;;;;;5077397;28;20223;-75
2022/11/29 06:02:25;;;;;;;66.97;34.73;;;;;;;;;;5074580;28;20188;-75
2022/11/29 06:05:12;;;;;;;66.97;33.80;;;;;;;;;;5088150;28;20256;-75
2022/11/29 06:07:47;;;;;;;72.13;35.97;;;;;;;;;;5087958;28;20180;-75
2022/11/29 06:10:16;;;;;;;79.97;37.47;;;;;;;;;;5085946;28;20174;-75
2022/11/29 06:12:45;;;;;;;76.13;38.43;;;;;;;;;;5081310;28;20169;-75
2022/11/29 06:15:17;;;;;;;74.43;37.63;;;;;;;;;;5078320;28;20605;-75
2022/11/29 06:18:02;;;;;;;83.10;39.30;;;;;;;;;;5086530;28;20169;-75
2022/11/29 06:20:36;;;;;;;81.57;40.73;;;;;;;;;;5085769;28;20650;-75
2022/11/29 06:23:23;;;;;;;86.10;42.57;;;;;;;;;;5074317;28;20309;-75
2022/11/29 06:25:49;;;;;;;85.40;40.63;;;;;;;;;;5071693;28;20314;-75
2022/11/29 06:28:23;;;;;;;85.43;40.47;;;;;;;;;;5077231;28;20192;-76
2022/11/29 06:30:58;;;;;;;78.30;41.77;;;;;;;;;;5078891;28;20191;-76
2022/11/29 06:33:27;;;;;;;80.73;42.10;;;;;;;;;;5083217;28;20697;-75
2022/11/29 06:35:53;;;;;;;86.10;42.93;;;;;;;;;;5086579;28;20169;-75
2022/11/29 06:38:25;;;;;;;91.00;43.67;;;;;;;;;;5088210;28;20190;-73
2022/11/29 06:40:53;;;;;;;89.73;42.53;;;;;;;;;;5074037;28;20180;-74
2022/11/29 06:43:19;;;;;;;81.23;41.47;;;;;;;;;;5079218;28;20572;-75
2022/11/29 06:45:50;;;;;;;85.30;41.80;;;;;;;;;;5083418;28;20195;-75
2022/11/29 06:48:21;;;;;;;79.03;43.00;;;;;;;;;;5083517;28;20184;-74
2022/11/29 06:50:57;;;;;;;75.57;41.27;;;;;;;;;;5089796;28;20238;-74
2022/11/29 06:53:23;;;;;;;80.67;41.20;;;;;;;;;;5084784;28;20252;-75
2022/11/29 06:55:52;;;;;;;79.23;42.33;;;;;;;;;;5090309;28;20237;-74
2022/11/29 06:58:18;;;;;;;79.67;42.63;;;;;;;;;;5085846;28;20169;-74
2022/11/29 07:00:53;;;;;;;89.50;43.00;;;;;;;;;;5080500;28;20542;-75
2022/11/29 07:03:38;;;;;;;78.73;40.87;;;;;;;;;;5081717;28;20801;-74
2022/11/29 07:06:08;;;;;;;74.43;41.20;;;;;;;;;;5087662;28;20234;-75
2022/11/29 07:08:34;;;;;;;78.40;41.97;;;;;;;;;;5088023;28;20181;-75
2022/11/29 07:11:00;;;;;;;93.23;49.70;;;;;;;;;;5073775;28;20177;-74
2022/11/29 07:13:27;;;;;;;91.33;45.80;;;;;;;;;;5086588;28;20176;-75
2022/11/29 07:15:56;;;;;;;79.13;40.73;;;;;;;;;;5078868;28;20205;-74
2022/11/29 07:18:27;;;;;;;78.83;43.47;;;;;;;;;;5087437;28;20268;-74
2022/11/29 07:20:56;;;;;;;79.00;41.93;;;;;;;;;;5086712;28;20188;-75
2022/11/29 07:23:30;;;;;;;72.27;40.93;;;;;;;;;;5073297;28;20223;-74
2022/11/29 07:26:15;;;;;;;77.43;42.00;;;;;;;;;;5088935;28;20172;-74
2022/11/29 07:28:45;;;;;;;76.90;41.07;;;;;;;;;;5089720;28;20168;-74
2022/11/29 07:31:43;;;;;;;98.73;51.13;;;;;;;;;;5088352;28;20271;-75
2022/11/29 07:34:24;;;;;;;98.50;53.20;;;;;;;;;;5027571;28;20711;-74
2022/11/29 07:37:08;;;;;;;111.60;60.23;;;;;;;;;;5020203;28;20292;-75
2022/11/29 07:39:46;;;;;;;79.83;46.53;;;;;;;;;;5022088;28;20685;-74
2022/11/29 07:42:17;;;;;;;67.10;39.47;;;;;;;;;;5027873;28;20750;-75
2022/11/29 07:44:53;;;;;;;69.23;39.10;;;;;;;;;;5010825;28;20257;-74
2022/11/29 07:47:19;;;;;;;82.53;45.37;;;;;;;;;;5012260;28;20194;-74
2022/11/29 07:49:45;;;;;;;85.23;48.23;;;;;;;;;;5029005;28;20190;-76
2022/11/29 07:52:12;;;;;;;71.93;39.27;;;;;;;;;;5030798;28;20177;-74
2022/11/29 07:54:38;;;;;;;64.47;39.70;;;;;;;;;;5005604;28;20191;-74
2022/11/29 07:57:04;;;;;;;69.67;40.23;;;;;;;;;;5018689;28;20616;-74
2022/11/29 07:59:30;;;;;;;79.50;42.50;;;;;;;;;;5027747;28;20214;-75
2022/11/29 08:01:57;;;;;;;83.50;43.30;;;;;;;;;;5012487;28;20249;-75
2022/11/29 08:04:23;;;;;;;82.10;43.67;;;;;;;;;;5029113;28;20805;-75
2022/11/29 08:06:49;;;;;;;83.50;45.47;;;;;;;;;;5020285;28;20645;-75
2022/11/29 08:09:15;;;;;;;86.17;47.63;;;;;;;;;;5034225;28;20200;-75
2022/11/29 08:11:41;;;;;;;80.73;44.93;;;;;;;;;;5086325;28;20177;-73
2022/11/29 08:14:07;;;;;;;80.03;46.93;;;;;;;;;;5087865;28;20176;-74
2022/11/29 08:16:34;;;;;;;72.27;44.00;;;;;;;;;;5078025;28;20176;-74
2022/11/29 08:19:00;;;;;;;89.60;51.97;;;;;;;;;;5087478;28;20230;-75
2022/11/29 08:21:26;;;;;;;84.37;48.13;;;;;;;;;;5081939;28;20204;-75
2022/11/29 08:23:52;;;;;;;73.27;42.93;;;;;;;;;;5073642;28;20651;-74
2022/11/29 08:26:18;;;;;;;84.10;44.80;;;;;;;;;;5087105;28;20189;-76
2022/11/29 08:28:44;;;;;;;79.20;45.30;;;;;;;;;;5075351;28;20173;-74
2022/11/29 08:31:12;;;;;;;78.53;44.23;;;;;;;;;;5072003;28;20189;-74
2022/11/29 08:33:39;;;;;;;82.10;45.20;;;;;;;;;;5075243;28;20231;-75
2022/11/29 08:36:06;;;;;;;81.03;46.23;;;;;;;;;;5073156;28;20185;-75
2022/11/29 08:38:32;;;;;;;75.37;43.93;;;;;;;;;;5087376;28;20195;-75
2022/11/29 08:41:02;;;;;;;78.27;45.03;;;;;;;;;;5088800;28;20168;-74
2022/11/29 08:43:29;;;;;;;67.87;39.93;;;;;;;;;;5082352;28;20250;-74
2022/11/29 08:45:55;;;;;;;73.97;42.10;;;;;;;;;;5085508;28;20194;-75
2022/11/29 08:48:21;;;;;;;67.07;40.60;;;;;;;;;;5089094;28;20185;-75
2022/11/29 08:50:50;;;;;;;75.47;42.53;;;;;;;;;;5076253;28;20196;-74
2022/11/29 08:56:01;;;;;;;75.90;43.77;;;;;;;;;;5089779;28;20286;-75
2022/11/29 08:58:27;;;;;;;71.40;41.80;;;;;;;;;;5075195;28;20247;-74
2022/11/29 09:00:53;;;;;;;78.00;44.33;;;;;;;;;;5078674;28;20181;-73
2022/11/29 09:06:11;;;;;;;77.57;43.47;;;;;;;;;;5078810;28;20667;-73
2022/11/29 09:08:37;;;;;;;70.13;40.90;;;;;;;;;;5075543;28;20190;-74
2022/11/29 09:11:08;;;;;;;66.07;41.00;;;;;;;;;;5075311;28;20185;-74
2022/11/29 09:13:33;;;;;;;66.27;40.37;;;;;;;;;;5073556;28;20530;-74
2022/11/29 09:16:04;;;;;;;63.93;40.87;;;;;;;;;;5082632;28;20656;-74
2022/11/29 09:18:30;;;;;;;59.20;36.90;;;;;;;;;;5094042;28;20184;-75
2022/11/29 09:20:56;;;;;;;65.80;39.60;;;;;;;;;;5088981;28;20181;-74
2022/11/29 09:23:22;;;;;;;66.13;40.57;;;;;;;;;;5074324;28;20236;-74
2022/11/29 09:25:49;;;;;;;60.10;36.10;;;;;;;;;;5077518;28;20193;-73
2022/11/29 09:28:15;;;;;;;58.03;36.57;;;;;;;;;;5084943;28;20207;-74
2022/11/29 09:30:41;;;;;;;62.03;38.23;;;;;;;;;;5086094;28;20283;-75
2022/11/29 09:33:07;;;;;;;65.10;40.10;;;;;;;;;;5085051;28;20180;-74
2022/11/29 09:35:33;;;;;;;61.43;38.10;;;;;;;;;;5074838;28;20185;-75
2022/11/29 09:37:59;;;;;;;63.03;37.87;;;;;;;;;;5092603;28;20217;-74
2022/11/29 09:40:36;;;;;;;59.63;38.43;;;;;;;;;;5086797;28;20183;-75
2022/11/29 09:43:09;;;;;;;59.27;37.27;;;;;;;;;;5080351;28;20184;-75
2022/11/29 09:45:41;;;;;;;60.47;37.63;;;;;;;;;;5081952;28;20199;-75
2022/11/29 09:48:07;;;;;;;56.00;36.27;;;;;;;;;;5088715;28;20637;-74
2022/11/29 09:50:41;;;;;;;53.90;35.70;;;;;;;;;;5073278;28;20242;-74
2022/11/29 09:53:33;;;;;;;54.97;34.73;;;;;;;;;;5088159;28;20180;-75
2022/11/29 09:56:15;;;;;;;51.37;33.13;;;;;;;;;;5088678;28;20177;-74
2022/11/29 09:58:43;;;;;;;51.73;34.57;;;;;;;;;;5089905;28;20222;-75
2022/11/29 10:01:12;;;;;;;56.67;35.93;;;;;;;;;;5079658;28;20646;-76
2022/11/29 10:03:45;;;;;;;53.80;34.37;;;;;;;;;;5079253;28;20569;-75
2022/11/29 10:06:21;;;;;;;53.60;34.73;;;;;;;;;;5084251;28;20235;-75
2022/11/29 10:09:13;;;;;;;53.87;35.20;;;;;;;;;;5091478;28;20180;-75
2022/11/29 10:12:00;;;;;;;49.83;33.60;;;;;;;;;;5028756;28;20712;-75
2022/11/29 10:14:40;;;;;;;50.80;33.80;;;;;;;;;;5012648;28;20671;-75
2022/11/29 10:17:18;;;;;;;53.17;33.60;;;;;;;;;;5018219;28;20196;-75
2022/11/29 10:19:47;;;;;;;45.97;30.50;;;;;;;;;;5030260;28;20186;-74
2022/11/29 10:22:22;;;;;;;44.40;29.70;;;;;;;;;;5028686;28;20226;-76
2022/11/29 10:24:51;;;;;;;44.60;28.20;;;;;;;;;;5028456;28;20251;-74
2022/11/29 10:27:22;;;;;;;40.87;26.93;;;;;;;;;;5008177;28;20281;-74
2022/11/29 10:29:50;;;;;;;43.53;28.50;;;;;;;;;;5009783;28;20588;-75
2022/11/29 10:32:18;;;;;;;43.30;28.17;;;;;;;;;;5029266;28;20171;-75
2022/11/29 10:34:45;;;;;;;39.73;28.30;;;;;;;;;;5014920;28;20682;-75
2022/11/29 10:37:13;;;;;;;41.90;27.93;;;;;;;;;;5026503;28;20265;-75
2022/11/29 10:39:43;;;;;;;43.57;28.53;;;;;;;;;;5027986;28;20235;-74
2022/11/29 10:42:47;;;;;;;42.70;27.17;;;;;;;;;;5028865;28;20733;-74
2022/11/29 10:45:16;;;;;;;37.03;26.23;;;;;;;;;;5008060;28;20392;-74
2022/11/29 10:47:43;;;;;;;38.37;25.97;;;;;;;;;;5038829;28;20197;-74
2022/11/29 10:50:13;;;;;;;39.73;26.27;;;;;;;;;;5073764;28;20268;-74
2022/11/29 10:52:39;;;;;;;40.83;27.50;;;;;;;;;;5081597;28;20216;-74
2022/11/29 10:55:05;;;;;;;40.57;27.87;;;;;;;;;;5089507;28;20207;-75
2022/11/29 10:57:31;;;;;;;41.97;28.07;;;;;;;;;;5084438;28;20642;-74
2022/11/29 11:00:10;;;;;;;39.70;27.43;;;;;;;;;;5073358;28;20187;-74
2022/11/29 11:02:37;;;;;;;33.60;23.03;;;;;;;;;;5073490;28;20189;-75
2022/11/29 11:05:11;;;;;;;39.37;27.70;;;;;;;;;;5087439;28;20539;-74
2022/11/29 11:07:38;;;;;;;36.67;25.27;;;;;;;;;;5074661;28;20181;-75
2022/11/29 11:10:14;;;;;;;34.17;24.63;;;;;;;;;;5085357;28;20254;-74
2022/11/29 11:12:41;;;;;;;37.87;25.37;;;;;;;;;;5089830;28;20218;-74
2022/11/29 11:15:15;;;;;;;36.83;26.10;;;;;;;;;;5086104;28;20649;-75
2022/11/29 11:17:54;;;;;;;33.83;24.77;;;;;;;;;;5085387;28;20226;-75
2022/11/29 11:20:22;;;;;;;37.13;25.77;;;;;;;;;;5088743;28;20180;-76
2022/11/29 11:22:59;;;;;;;36.37;25.03;;;;;;;;;;5069836;28;20578;-74
2022/11/29 11:25:28;;;;;;;35.20;25.77;;;;;;;;;;5077996;28;20217;-74
2022/11/29 11:27:56;;;;;;;40.30;27.70;;;;;;;;;;5079449;28;20208;-74
2022/11/29 11:30:24;;;;;;;38.77;27.17;;;;;;;;;;5084889;28;20192;-74
2022/11/29 11:33:08;;;;;;;37.93;27.20;;;;;;;;;;5087244;28;20246;-75
2022/11/29 11:35:36;;;;;;;37.30;27.17;;;;;;;;;;5071487;28;20669;-74
2022/11/29 11:38:02;;;;;;;37.30;24.33;;;;;;;;;;5086693;28;20174;-74
2022/11/29 11:40:29;;;;;;;32.10;23.73;;;;;;;;;;5078422;28;20181;-74
2022/11/29 11:43:00;;;;;;;34.67;24.47;;;;;;;;;;5081630;28;20180;-75
2022/11/29 11:45:31;;;;;;;34.47;24.60;;;;;;;;;;5086948;28;20200;-75
2022/11/29 11:47:58;;;;;;;33.33;24.03;;;;;;;;;;5087581;28;20207;-75
2022/11/29 11:50:26;;;;;;;34.77;24.37;;;;;;;;;;5071865;28;20180;-75
2022/11/29 11:52:55;;;;;;;34.83;25.33;;;;;;;;;;5087585;28;20187;-75
2022/11/29 11:55:22;;;;;;;38.67;24.37;;;;;;;;;;5076601;28;20725;-74
2022/11/29 11:58:03;;;;;;;33.37;24.60;;;;;;;;;;5082166;28;20232;-75
2022/11/29 12:00:38;;;;;;;37.37;25.00;;;;;;;;;;5088230;28;20296;-75
2022/11/29 12:03:05;;;;;;;33.47;24.47;;;;;;;;;;5085010;28;20645;-75
2022/11/29 12:05:31;;;;;;;31.30;23.13;;;;;;;;;;5089312;28;20185;-75
2022/11/29 12:08:02;;;;;;;35.77;24.93;;;;;;;;;;5077207;28;20269;-75
2022/11/29 12:10:29;;;;;;;33.00;23.87;;;;;;;;;;5086417;28;20265;-74
2022/11/29 12:12:56;;;;;;;34.00;25.53;;;;;;;;;;5090800;28;20267;-75
2022/11/29 12:15:25;;;;;;;39.13;25.67;;;;;;;;;;5086493;28;20189;-75
2022/11/29 12:17:54;;;;;;;30.77;22.57;;;;;;;;;;5089292;28;20189;-74
2022/11/29 12:20:21;;;;;;;33.70;24.50;;;;;;;;;;5092659;28;20253;-74
2022/11/29 12:22:53;;;;;;;35.40;23.67;;;;;;;;;;5075832;28;20689;-74
2022/11/29 12:25:21;;;;;;;32.53;23.70;;;;;;;;;;5079882;28;20232;-74
2022/11/29 12:27:49;;;;;;;34.13;25.03;;;;;;;;;;5079124;28;20181;-74
2022/11/29 12:30:15;;;;;;;30.23;22.77;;;;;;;;;;5079230;28;20230;-74
2022/11/29 12:32:44;;;;;;;33.77;23.17;;;;;;;;;;5075727;28;20197;-74
2022/11/29 12:35:28;;;;;;;31.37;22.90;;;;;;;;;;5090739;28;20640;-73
2022/11/29 12:38:06;;;;;;;33.13;24.27;;;;;;;;;;5079170;28;20188;-73
2022/11/29 12:40:32;;;;;;;33.00;24.23;;;;;;;;;;5088033;28;20184;-75
2022/11/29 12:42:58;;;;;;;37.30;23.50;;;;;;;;;;5087431;28;20587;-75
2022/11/29 12:45:43;;;;;;;31.77;24.10;;;;;;;;;;5092313;28;20204;-75
2022/11/29 12:48:15;;;;;;;35.57;25.57;;;;;;;;;;5088221;28;20629;-75
2022/11/29 12:51:01;;;;;;;37.70;25.10;;;;;;;;;;5074380;28;20693;-75
2022/11/29 12:53:46;;;;;;;31.47;23.40;;;;;;;;;;5089911;28;20180;-74
2022/11/29 12:56:18;;;;;;;29.60;22.70;;;;;;;;;;5090772;28;20176;-75
2022/11/29 12:58:47;;;;;;;35.57;23.67;;;;;;;;;;5075360;28;20168;-74
2022/11/29 13:01:19;;;;;;;31.73;23.43;;;;;;;;;;5083945;28;20177;-74
2022/11/29 13:03:56;;;;;;;29.60;23.27;;;;;;;;;;5087264;28;20880;-75
2022/11/29 13:06:37;;;;;;;29.80;22.93;;;;;;;;;;5086241;28;20180;-74
2022/11/29 13:09:16;;;;;;;31.40;24.37;;;;;;;;;;5092246;28;20185;-75
2022/11/29 13:12:01;;;;;;;36.03;25.00;;;;;;;;;;5071412;28;20173;-75
2022/11/29 13:14:30;;;;;;;40.50;28.37;;;;;;;;;;5090368;28;20230;-75
2022/11/29 13:17:16;;;;;;;31.43;23.87;;;;;;;;;;5082971;28;20647;-76
2022/11/29 13:19:46;;;;;;;36.00;27.80;;;;;;;;;;5090224;28;20270;-76
2022/11/29 13:22:17;;;;;;;39.17;30.27;;;;;;;;;;5081800;28;20228;-76
2022/11/29 13:24:50;;;;;;;33.80;25.40;;;;;;;;;;5083343;28;20196;-75
2022/11/29 13:27:19;;;;;;;39.17;26.33;;;;;;;;;;5087914;28;20184;-75
2022/11/29 13:29:45;;;;;;;35.33;27.00;;;;;;;;;;5074294;28;20187;-76
2022/11/29 13:32:30;;;;;;;40.17;28.97;;;;;;;;;;5085047;28;20180;-74
2022/11/29 13:35:00;;;;;;;39.37;26.10;;;;;;;;;;5092025;28;20177;-75
2022/11/29 13:37:30;;;;;;;35.23;26.53;;;;;;;;;;5081263;28;20664;-75
2022/11/29 13:40:15;;;;;;;36.00;27.33;;;;;;;;;;5084733;28;20624;-75
2022/11/29 13:42:47;;;;;;;35.87;24.77;;;;;;;;;;5086702;28;20184;-75
2022/11/29 13:45:32;;;;;;;30.10;23.03;;;;;;;;;;5078637;28;20237;-75
2022/11/29 13:47:59;;;;;;;36.30;26.00;;;;;;;;;;5071509;28;20192;-75
2022/11/29 13:50:36;;;;;;;36.23;23.87;;;;;;;;;;5074414;28;20189;-75
2022/11/29 13:53:16;;;;;;;33.60;23.30;;;;;;;;;;5085854;28;20641;-75
2022/11/29 13:56:00;;;;;;;34.00;23.83;;;;;;;;;;5076545;28;20203;-76
2022/11/29 13:58:37;;;;;;;31.90;24.87;;;;;;;;;;5077377;28;20184;-75
2022/11/29 14:01:10;;;;;;;31.30;22.80;;;;;;;;;;5079973;28;20180;-76
2022/11/29 14:03:37;;;;;;;32.10;23.93;;;;;;;;;;5086241;28;20200;-75
2022/11/29 14:06:17;;;;;;;30.63;23.13;;;;;;;;;;5075613;28;20695;-75
2022/11/29 14:08:45;;;;;;;33.37;24.63;;;;;;;;;;5074018;28;20276;-75
2022/11/29 14:11:11;;;;;;;33.40;25.37;;;;;;;;;;5076265;28;20180;-75
2022/11/29 14:13:43;;;;;;;32.87;24.03;;;;;;;;;;5077184;28;20231;-75
2022/11/29 14:16:25;;;;;;;28.57;22.47;;;;;;;;;;5076921;28;20185;-75
2022/11/29 14:19:09;;;;;;;30.47;23.13;;;;;;;;;;5079715;28;20180;-75
2022/11/29 14:21:54;;;;;;;35.37;25.80;;;;;;;;;;5086233;28;20184;-76
2022/11/29 14:24:49;;;;;;;34.50;25.23;;;;;;;;;;5075039;28;20209;-74
2022/11/29 14:27:18;;;;;;;40.23;27.30;;;;;;;;;;5049469;28;20279;-76
2022/11/29 14:29:53;;;;;;;39.03;28.90;;;;;;;;;;5088587;28;20177;-76
2022/11/29 14:32:42;;;;;;;39.50;28.97;;;;;;;;;;5087815;28;20228;-76
2022/11/29 14:35:08;;;;;;;33.13;24.50;;;;;;;;;;5076625;28;20176;-76
2022/11/29 14:37:37;;;;;;;36.00;23.93;;;;;;;;;;5076151;28;20207;-75
2022/11/29 14:40:11;;;;;;;31.60;24.37;;;;;;;;;;5075767;28;20187;-76
2022/11/29 14:42:44;;;;;;;33.03;23.93;;;;;;;;;;5075447;28;20275;-76
2022/11/29 14:45:21;;;;;;;39.77;26.97;;;;;;;;;;5089272;28;20204;-75
2022/11/29 14:47:47;;;;;;;36.70;25.10;;;;;;;;;;5070748;28;20176;-75
2022/11/29 14:50:32;;;;;;;33.07;23.97;;;;;;;;;;5094838;28;20172;-76
2022/11/29 14:52:58;;;;;;;34.43;25.10;;;;;;;;;;5102536;28;20238;-75
2022/11/29 14:55:24;;;;;;;40.87;24.40;;;;;;;;;;5089374;28;20549;-76